NVSSNVVV

Guest
Details From NVSS - Santo Pekoa Intl
To NVVV - Port Vila Bauerfield
Flight Number -
Tags Routegen Generated
Created
Modified
Stats Distance 147 nm / 272 km
Max Altitude 600 ft / 183 m
Waypoints 8
Social Downloads 2
Likes 0
Share VATSIM

Download

Looking for another format? Having issues loading an existing format? Contact us
Advertisement - Login to hide

Notes

Departing runway 12 NVSS. Arriving runway 11 NVVV.

Route

NVSS -15.56_+167.29 -15.61_+167.32 -16.35_+167.64 -17.56_+168.18 -17.62_+168.20 -17.66_+168.24 NVVV

ID Type Via Altitude Latitude Longitude Leg Dist Tot Dist Heading (true) Name
O NVSS APT - 0 ft / 0 m -15.51065˚ 167.22698˚ - 0 nm - -
-15.56_+167.29 LATLON - 600 ft / 183 m -15.55603˚ 167.28548˚ 4 nm 4 nm 129° / 129° -
-15.61_+167.32 LATLON - 600 ft / 183 m -15.60557˚ 167.31657˚ 3 nm 7 nm 149° / 149° -
-16.35_+167.64 LATLON - 600 ft / 183 m -16.34746˚ 167.63562˚ 48 nm 56 nm 158° / 157° -
-17.56_+168.18 LATLON - 600 ft / 183 m -17.56198˚ 168.17628˚ 79 nm 135 nm 157° / 157° -
-17.62_+168.20 LATLON - 600 ft / 183 m -17.61567˚ 168.19902˚ 3 nm 138 nm 158° / 158° -
-17.66_+168.24 LATLON - 600 ft / 183 m -17.65870˚ 168.23966˚ 3 nm 142 nm 138° / 138° -
O NVVV APT - 0 ft / 0 m -17.69269˚ 168.30671˚ 4 nm 146 nm 118° / 118° -

Altitude Profile

Advertisement - Login to hide

NVSS

Details ICAO NVSS (SON)
Name Santo Pekoa Intl
Region Vanuatu
Timezone Pacific/Efate (UTC+11.0)
Stats Elevation 184 ft / 56 m (AMSL)
Location -15.504563° 167.219688°
Runways 1
Magnetic Variation 10.922° E

METAR

Not found

TAF

TAF NVSS 111000Z 1112/1212 15007KT 9999 SCT020 PROB40 INTER 1112/1118 8000 SHRA BKN018 BECMG 1121/1123 03006KT

Decode

Departure Runways

ID Width Length Bearing (true) Bearing (mag) Surface Threshold Offset Overrun Length
12 98 ft / 30 m 6,569 ft / 2,002 m 129.30° 118.38° Asphalt 0 ft / 0 m 203 ft / 62 m
30 98 ft / 30 m 6,569 ft / 2,002 m 309.30° 298.38° Asphalt 0 ft / 0 m 194 ft / 59 m

NVVV

Details ICAO NVVV (VLI)
Name Bauerfield
Region Vanuatu
Timezone Pacific/Efate (UTC+11.0)
Stats Elevation 70 ft / 21 m (AMSL)
Location -17.698183° 168.317539°
Runways 1
Magnetic Variation 11.546° E

METAR

Not found

TAF

TAF NVVV 111000Z 1112/1212 VRB03KT 9999 SCT020 INTER 1112/1118 9000 -SHRA BKN018 BECMG 1121/1123 07010KT

Decode

Destination Runways

ID Width Length Bearing (true) Bearing (mag) Surface Threshold Offset Overrun Length
11 148 ft / 45 m 8,531 ft / 2,600 m 118.01° 106.46° Asphalt 0 ft / 0 m 197 ft / 60 m
29 148 ft / 45 m 8,531 ft / 2,600 m 298.01° 286.46° Asphalt 0 ft / 0 m 197 ft / 60 m

Approach Navaids

Runway Type Ident Frequency Range Bearing (true) Bearing (mag) Slope Elevation
11 Localiser IBF 110.70 MHz 18 nm / 33 km 117.54° 106.00° - 10 ft / 3 m (AMSL)
11 DME IBF 110.70 MHz 18 nm / 33 km - - - 13 ft / 4 m (AMSL)

Popular Alternatives